Time;durP1;ratioP1;P1;durP2;ratioP2;P2;SDS_P1;SDS_P2;PMS_P1;PMS_P2;Temp;Humidity;BMP_temperature;BMP_pressure;BME280_temperature;BME280_humidity;BME280_pressure;Samples;Min_cycle;Max_cycle;Signal;HPM_P1;HPM_P2
2023/09/24 00:00:10;;;;;;;3.53;2.70;;;;;;;;;;5047581;28;20203;-82
2023/09/24 00:02:38;;;;;;;2.20;2.00;;;;;;;;;;5044742;28;20199;-82
2023/09/24 00:05:09;;;;;;;1.60;1.50;;;;;;;;;;5053400;28;20218;-82
2023/09/24 00:07:37;;;;;;;1.97;1.77;;;;;;;;;;5043404;28;20264;-82
2023/09/24 00:10:05;;;;;;;3.13;2.13;;;;;;;;;;5045438;28;20222;-83
2023/09/24 00:12:32;;;;;;;2.63;2.43;;;;;;;;;;5045711;28;20259;-81
2023/09/24 00:14:59;;;;;;;4.47;3.27;;;;;;;;;;5042063;28;20326;-81
2023/09/24 00:17:26;;;;;;;1.70;1.53;;;;;;;;;;5044650;28;20210;-82
2023/09/24 00:19:54;;;;;;;2.90;1.43;;;;;;;;;;5039289;28;20206;-81
2023/09/24 00:22:21;;;;;;;2.00;1.80;;;;;;;;;;5046192;28;20214;-83
2023/09/24 00:24:52;;;;;;;2.57;1.80;;;;;;;;;;5046149;28;20606;-80
2023/09/24 00:27:20;;;;;;;4.93;2.03;;;;;;;;;;5036796;28;20784;-82
2023/09/24 00:29:48;;;;;;;2.97;1.87;;;;;;;;;;5050167;28;20203;-82
2023/09/24 00:32:15;;;;;;;2.23;1.90;;;;;;;;;;5046651;28;20201;-81
2023/09/24 00:34:42;;;;;;;1.90;1.80;;;;;;;;;;5051240;28;20256;-80
2023/09/24 00:37:11;;;;;;;2.97;2.27;;;;;;;;;;5051187;28;20290;-81
2023/09/24 00:39:39;;;;;;;2.43;2.10;;;;;;;;;;5048398;28;20206;-80
2023/09/24 00:42:09;;;;;;;2.17;1.97;;;;;;;;;;5045979;28;20207;-81
2023/09/24 00:44:36;;;;;;;2.90;2.40;;;;;;;;;;5049364;28;20307;-83
2023/09/24 00:47:04;;;;;;;3.33;2.67;;;;;;;;;;5047741;28;20229;-81
2023/09/24 00:49:32;;;;;;;2.50;2.30;;;;;;;;;;5051379;28;20194;-83
2023/09/24 00:52:00;;;;;;;2.33;2.13;;;;;;;;;;5050492;28;20203;-82
2023/09/24 00:54:27;;;;;;;2.17;2.03;;;;;;;;;;5046489;28;20271;-81
2023/09/24 00:56:58;;;;;;;2.30;2.10;;;;;;;;;;5050091;28;20212;-82
2023/09/24 00:59:30;;;;;;;2.23;2.03;;;;;;;;;;5040844;28;20649;-82
2023/09/24 01:01:59;;;;;;;2.10;2.00;;;;;;;;;;5049977;28;20202;-81
2023/09/24 01:04:27;;;;;;;1.90;1.80;;;;;;;;;;5050496;28;20226;-83
2023/09/24 01:06:55;;;;;;;3.17;2.20;;;;;;;;;;5045974;28;20279;-82
2023/09/24 01:09:22;;;;;;;2.10;2.00;;;;;;;;;;5049589;28;20194;-82
2023/09/24 01:11:52;;;;;;;2.07;1.70;;;;;;;;;;5045807;28;20206;-81
2023/09/24 01:14:20;;;;;;;3.70;2.03;;;;;;;;;;5050953;28;20305;-81
2023/09/24 01:16:47;;;;;;;2.40;2.20;;;;;;;;;;5043251;28;20212;-82
2023/09/24 01:19:15;;;;;;;2.17;1.93;;;;;;;;;;5045377;28;20208;-83
2023/09/24 01:21:43;;;;;;;2.13;1.93;;;;;;;;;;5047381;28;20233;-83
2023/09/24 01:24:10;;;;;;;3.63;1.80;;;;;;;;;;5046552;28;20226;-82
2023/09/24 01:26:38;;;;;;;9.53;5.67;;;;;;;;;;5044270;28;20243;-81
2023/09/24 01:29:07;;;;;;;4.80;3.87;;;;;;;;;;5046508;28;20217;-83
2023/09/24 01:31:38;;;;;;;3.27;2.40;;;;;;;;;;5048602;28;20194;-82
2023/09/24 01:34:05;;;;;;;2.60;2.10;;;;;;;;;;5044521;28;20306;-82
2023/09/24 01:36:33;;;;;;;4.03;2.30;;;;;;;;;;5048687;28;20290;-79
2023/09/24 01:39:01;;;;;;;11.10;7.27;;;;;;;;;;5048990;28;20202;-81
2023/09/24 01:41:31;;;;;;;6.73;3.87;;;;;;;;;;5047656;28;20237;-82
2023/09/24 01:43:59;;;;;;;4.57;2.80;;;;;;;;;;5040878;28;20231;-81
2023/09/24 01:46:27;;;;;;;3.23;2.60;;;;;;;;;;5030999;28;20754;-81
2023/09/24 01:48:54;;;;;;;3.47;2.50;;;;;;;;;;5043256;28;20202;-82
2023/09/24 01:51:23;;;;;;;2.93;2.60;;;;;;;;;;5048546;28;20194;-81
2023/09/24 01:53:50;;;;;;;2.40;2.20;;;;;;;;;;5039699;28;20226;-81
2023/09/24 01:56:21;;;;;;;3.37;2.40;;;;;;;;;;5045094;28;20664;-81
2023/09/24 01:58:51;;;;;;;4.17;2.10;;;;;;;;;;5045939;28;20210;-81
2023/09/24 02:01:18;;;;;;;2.47;2.27;;;;;;;;;;5047808;28;20294;-80
2023/09/24 02:03:46;;;;;;;2.63;2.43;;;;;;;;;;5055137;28;20213;-82
2023/09/24 02:06:14;;;;;;;2.37;2.03;;;;;;;;;;5053883;28;20206;-83
2023/09/24 02:08:41;;;;;;;2.60;2.40;;;;;;;;;;5042276;28;20203;-83
2023/09/24 02:11:09;;;;;;;3.07;2.47;;;;;;;;;;5045793;28;20221;-81
2023/09/24 02:13:36;;;;;;;2.70;2.30;;;;;;;;;;5050794;28;20268;-83
2023/09/24 02:16:06;;;;;;;2.53;2.17;;;;;;;;;;5045855;28;20207;-83
2023/09/24 02:18:33;;;;;;;3.43;2.60;;;;;;;;;;5049078;28;20198;-82
2023/09/24 02:21:01;;;;;;;2.57;2.37;;;;;;;;;;5046305;28;20203;-80
2023/09/24 02:23:29;;;;;;;2.60;2.27;;;;;;;;;;5051763;28;20293;-81
2023/09/24 02:25:56;;;;;;;4.40;2.60;;;;;;;;;;5042313;28;20196;-81
2023/09/24 02:28:24;;;;;;;3.00;2.67;;;;;;;;;;5046909;28;20222;-83
2023/09/24 02:30:52;;;;;;;2.67;2.47;;;;;;;;;;5055588;28;20198;-82
2023/09/24 02:33:21;;;;;;;2.63;2.43;;;;;;;;;;5053022;28;20332;-81
2023/09/24 02:35:49;;;;;;;3.17;2.70;;;;;;;;;;5048085;28;20240;-80
2023/09/24 02:38:18;;;;;;;2.60;2.40;;;;;;;;;;5043996;28;20207;-81
2023/09/24 02:40:46;;;;;;;4.00;2.43;;;;;;;;;;5045612;28;20229;-79
2023/09/24 02:43:13;;;;;;;2.83;2.47;;;;;;;;;;5048966;28;20202;-81
2023/09/24 02:45:40;;;;;;;4.63;2.80;;;;;;;;;;5049664;28;20246;-80
2023/09/24 02:48:07;;;;;;;4.33;2.83;;;;;;;;;;5047685;28;20222;-81
2023/09/24 02:50:35;;;;;;;2.70;2.50;;;;;;;;;;5046559;28;20260;-82
2023/09/24 02:53:04;;;;;;;2.90;2.60;;;;;;;;;;5037721;28;20203;-81
2023/09/24 02:55:32;;;;;;;2.70;2.50;;;;;;;;;;5046778;28;20733;-82
2023/09/24 02:57:59;;;;;;;2.50;2.30;;;;;;;;;;5047260;28;20240;-81
2023/09/24 03:00:33;;;;;;;2.37;2.20;;;;;;;;;;5043374;28;20222;-83
2023/09/24 03:03:01;;;;;;;3.33;2.37;;;;;;;;;;5050897;28;20210;-81
2023/09/24 03:05:29;;;;;;;3.37;2.00;;;;;;;;;;5047566;28;20674;-81
2023/09/24 03:08:02;;;;;;;1.90;1.80;;;;;;;;;;5042374;28;20230;-80
2023/09/24 03:10:33;;;;;;;3.10;1.90;;;;;;;;;;5044539;28;20693;-80
2023/09/24 03:13:00;;;;;;;1.90;1.80;;;;;;;;;;5045678;28;20222;-81
2023/09/24 03:15:28;;;;;;;3.43;3.13;;;;;;;;;;5039948;28;20321;-79
2023/09/24 03:17:55;;;;;;;2.90;2.30;;;;;;;;;;5042210;28;20206;-81
2023/09/24 03:20:23;;;;;;;2.50;1.70;;;;;;;;;;5047062;28;20217;-82
2023/09/24 03:22:52;;;;;;;1.97;1.87;;;;;;;;;;5045217;28;20217;-81
2023/09/24 03:25:20;;;;;;;4.03;2.20;;;;;;;;;;5043098;28;20231;-81
2023/09/24 03:27:48;;;;;;;2.47;2.27;;;;;;;;;;5039842;28;20642;-81
2023/09/24 03:30:17;;;;;;;2.27;2.10;;;;;;;;;;5049895;28;20210;-80
2023/09/24 03:32:45;;;;;;;2.87;2.47;;;;;;;;;;5049038;28;20201;-80
2023/09/24 03:35:14;;;;;;;3.60;2.20;;;;;;;;;;5040950;28;20273;-80
2023/09/24 03:37:45;;;;;;;2.40;2.20;;;;;;;;;;5049001;28;20230;-80
2023/09/24 03:40:15;;;;;;;2.40;2.20;;;;;;;;;;5048222;28;20203;-81
2023/09/24 03:42:42;;;;;;;2.50;2.30;;;;;;;;;;5052304;28;20210;-80
2023/09/24 03:45:10;;;;;;;2.70;2.43;;;;;;;;;;5043175;28;20219;-82
2023/09/24 03:47:41;;;;;;;2.57;2.37;;;;;;;;;;5050201;28;20887;-80
2023/09/24 03:50:13;;;;;;;2.70;2.50;;;;;;;;;;5043683;28;20203;-80
2023/09/24 03:52:44;;;;;;;2.47;2.27;;;;;;;;;;5044504;28;20237;-82
2023/09/24 03:55:11;;;;;;;3.27;2.97;;;;;;;;;;5043646;28;20229;-82
2023/09/24 03:57:39;;;;;;;5.33;3.27;;;;;;;;;;5045201;28;20294;-83
2023/09/24 04:00:16;;;;;;;3.20;2.57;;;;;;;;;;5041990;28;20250;-80
2023/09/24 04:02:47;;;;;;;2.67;2.47;;;;;;;;;;5048794;28;20205;-83
2023/09/24 04:05:19;;;;;;;3.23;2.63;;;;;;;;;;5046313;28;20278;-80
2023/09/24 04:07:49;;;;;;;2.03;1.93;;;;;;;;;;5051137;28;20240;-82
2023/09/24 04:10:17;;;;;;;2.33;2.13;;;;;;;;;;5045803;28;20210;-81
2023/09/24 04:12:49;;;;;;;3.93;3.43;;;;;;;;;;5050882;28;20202;-82
2023/09/24 04:15:19;;;;;;;4.40;3.60;;;;;;;;;;5050360;28;20219;-82
2023/09/24 04:17:46;;;;;;;9.57;5.50;;;;;;;;;;5051598;28;20293;-81
2023/09/24 04:20:14;;;;;;;7.27;4.80;;;;;;;;;;5049693;28;20290;-81
2023/09/24 04:22:44;;;;;;;8.20;4.70;;;;;;;;;;5051494;28;20214;-82
2023/09/24 04:25:14;;;;;;;5.23;4.00;;;;;;;;;;5049939;28;20230;-79
2023/09/24 04:27:44;;;;;;;7.20;3.73;;;;;;;;;;5048253;28;20230;-81
2023/09/24 04:30:18;;;;;;;3.87;3.30;;;;;;;;;;5052050;28;20207;-81
2023/09/24 04:32:49;;;;;;;5.50;3.30;;;;;;;;;;5045553;28;20248;-81
2023/09/24 04:35:19;;;;;;;4.77;3.13;;;;;;;;;;5051566;28;20233;-80
2023/09/24 04:37:50;;;;;;;3.13;2.80;;;;;;;;;;5045513;28;20234;-81
2023/09/24 04:40:18;;;;;;;2.90;2.70;;;;;;;;;;5050770;28;20210;-81
2023/09/24 04:42:47;;;;;;;2.50;2.30;;;;;;;;;;5050176;28;20264;-80
2023/09/24 04:45:14;;;;;;;2.60;2.40;;;;;;;;;;5051248;28;20227;-81
2023/09/24 04:47:42;;;;;;;2.63;2.43;;;;;;;;;;5049946;28;20248;-79
2023/09/24 04:50:12;;;;;;;2.10;2.00;;;;;;;;;;5049196;28;20199;-81
2023/09/24 04:52:41;;;;;;;1.90;1.80;;;;;;;;;;5052101;28;20476;-79
2023/09/24 04:55:09;;;;;;;2.03;1.83;;;;;;;;;;5043553;28;20296;-82
2023/09/24 04:57:37;;;;;;;2.03;1.73;;;;;;;;;;5046821;28;20202;-80
2023/09/24 05:00:04;;;;;;;4.27;1.90;;;;;;;;;;5050552;28;20202;-80
2023/09/24 05:02:31;;;;;;;2.00;1.90;;;;;;;;;;5052597;28;20198;-82
2023/09/24 05:04:59;;;;;;;2.00;1.90;;;;;;;;;;5048436;28;20272;-80
2023/09/24 05:07:26;;;;;;;1.90;1.80;;;;;;;;;;5041145;28;20226;-80
2023/09/24 05:09:53;;;;;;;2.80;2.60;;;;;;;;;;5050337;28;20587;-80
2023/09/24 05:12:22;;;;;;;1.70;1.60;;;;;;;;;;5050968;28;20207;-81
2023/09/24 05:14:49;;;;;;;1.70;1.60;;;;;;;;;;5048807;28;20769;-81
2023/09/24 05:17:16;;;;;;;1.97;1.87;;;;;;;;;;5043130;28;20210;-79
2023/09/24 05:19:43;;;;;;;1.67;1.57;;;;;;;;;;5046916;28;20213;-79
2023/09/24 05:22:10;;;;;;;2.10;2.00;;;;;;;;;;5046198;28;20215;-81
2023/09/24 05:24:38;;;;;;;2.00;1.90;;;;;;;;;;5043523;28;20226;-83
2023/09/24 05:27:05;;;;;;;2.30;2.10;;;;;;;;;;5039725;28;20203;-80
2023/09/24 05:29:32;;;;;;;4.97;4.30;;;;;;;;;;5049266;28;20205;-81
2023/09/24 05:32:02;;;;;;;5.33;4.83;;;;;;;;;;5047674;28;20649;-82
2023/09/24 05:34:30;;;;;;;4.70;4.10;;;;;;;;;;5051170;28;20222;-82
2023/09/24 05:36:57;;;;;;;3.90;3.60;;;;;;;;;;5052947;28;20672;-81
2023/09/24 05:39:24;;;;;;;3.47;3.17;;;;;;;;;;5050115;28;20340;-82
2023/09/24 05:41:51;;;;;;;3.27;3.03;;;;;;;;;;5050976;28;20202;-81
2023/09/24 05:44:20;;;;;;;2.70;2.50;;;;;;;;;;5049393;28;20730;-80
2023/09/24 05:46:47;;;;;;;4.20;3.50;;;;;;;;;;5049661;28;20214;-80
2023/09/24 05:49:15;;;;;;;3.20;2.90;;;;;;;;;;5048586;28;20249;-82
2023/09/24 05:51:43;;;;;;;2.33;2.23;;;;;;;;;;5039130;28;20214;-82
2023/09/24 05:54:10;;;;;;;2.67;2.47;;;;;;;;;;5052501;28;20329;-82
2023/09/24 05:56:38;;;;;;;2.60;2.40;;;;;;;;;;5040958;28;20561;-82
2023/09/24 05:59:05;;;;;;;2.87;2.00;;;;;;;;;;5045139;28;20202;-79
2023/09/24 06:01:32;;;;;;;1.93;1.83;;;;;;;;;;5049276;28;20203;-82
2023/09/24 06:04:00;;;;;;;2.17;1.97;;;;;;;;;;5050100;28;20230;-81
2023/09/24 06:06:27;;;;;;;2.87;2.57;;;;;;;;;;5052097;28;20216;-79
2023/09/24 06:08:55;;;;;;;2.80;2.60;;;;;;;;;;5051348;28;20513;-82
2023/09/24 06:11:22;;;;;;;3.77;3.03;;;;;;;;;;5044584;28;20293;-82
2023/09/24 06:13:49;;;;;;;3.33;3.13;;;;;;;;;;5052224;28;20214;-81
2023/09/24 06:16:17;;;;;;;3.00;2.70;;;;;;;;;;5049309;28;20258;-82
2023/09/24 06:18:44;;;;;;;4.07;2.83;;;;;;;;;;5050960;28;20296;-82
2023/09/24 06:21:16;;;;;;;3.03;2.80;;;;;;;;;;5056301;28;20199;-81
2023/09/24 06:23:43;;;;;;;3.97;2.73;;;;;;;;;;5053720;28;20272;-80
2023/09/24 06:26:11;;;;;;;4.37;3.13;;;;;;;;;;5049703;28;20261;-80
2023/09/24 06:28:38;;;;;;;2.63;2.43;;;;;;;;;;5051412;28;20595;-81
2023/09/24 06:31:05;;;;;;;2.07;1.97;;;;;;;;;;5048948;28;20231;-81
2023/09/24 06:33:32;;;;;;;2.07;1.90;;;;;;;;;;5048970;28;20806;-82
2023/09/24 06:36:03;;;;;;;2.30;2.10;;;;;;;;;;5043270;28;20213;-82
2023/09/24 06:38:33;;;;;;;1.90;1.70;;;;;;;;;;5052795;28;20202;-81
2023/09/24 06:41:04;;;;;;;2.90;2.43;;;;;;;;;;5048785;28;20202;-81
2023/09/24 06:43:32;;;;;;;2.07;1.97;;;;;;;;;;5039278;28;20209;-82
2023/09/24 06:46:02;;;;;;;1.87;1.77;;;;;;;;;;5050944;28;20695;-79
2023/09/24 06:48:29;;;;;;;1.77;1.70;;;;;;;;;;5051143;28;20862;-83
2023/09/24 06:51:05;;;;;;;2.07;1.70;;;;;;;;;;5041785;28;20202;-82
2023/09/24 06:53:32;;;;;;;3.70;2.30;;;;;;;;;;5041668;28;20289;-83
2023/09/24 06:56:00;;;;;;;5.33;2.90;;;;;;;;;;5038582;28;20624;-82
2023/09/24 06:58:27;;;;;;;3.17;2.77;;;;;;;;;;5039773;28;20214;-83
2023/09/24 07:00:54;;;;;;;4.70;2.70;;;;;;;;;;5051127;28;20570;-80
2023/09/24 07:03:21;;;;;;;3.50;2.50;;;;;;;;;;5052266;28;20225;-79
2023/09/24 07:05:51;;;;;;;3.17;2.87;;;;;;;;;;5055737;28;20725;-79
2023/09/24 07:08:18;;;;;;;3.90;2.77;;;;;;;;;;5056616;28;20222;-82
2023/09/24 07:10:46;;;;;;;4.33;2.87;;;;;;;;;;5055671;28;20268;-82
2023/09/24 07:13:14;;;;;;;2.90;2.70;;;;;;;;;;5051887;28;20210;-80
2023/09/24 07:15:42;;;;;;;3.83;2.50;;;;;;;;;;5057132;28;20806;-80
2023/09/24 07:18:10;;;;;;;4.53;2.97;;;;;;;;;;5052344;28;20210;-81
2023/09/24 07:20:37;;;;;;;5.20;2.53;;;;;;;;;;5051483;28;20206;-79
2023/09/24 07:23:04;;;;;;;5.27;2.70;;;;;;;;;;5047660;28;20213;-79
2023/09/24 07:25:31;;;;;;;5.33;2.40;;;;;;;;;;5051075;28;20226;-83
2023/09/24 07:27:59;;;;;;;2.60;2.40;;;;;;;;;;5045295;28;20226;-81
2023/09/24 07:30:26;;;;;;;3.60;2.50;;;;;;;;;;5056138;28;20198;-82
2023/09/24 07:32:53;;;;;;;2.73;2.43;;;;;;;;;;5047632;28;20203;-81
2023/09/24 07:35:20;;;;;;;4.00;2.10;;;;;;;;;;5055798;28;20306;-82
2023/09/24 07:37:48;;;;;;;4.47;2.37;;;;;;;;;;5034326;28;20704;-80
2023/09/24 07:40:16;;;;;;;5.37;2.23;;;;;;;;;;5036443;28;20256;-78
2023/09/24 07:42:46;;;;;;;4.50;2.43;;;;;;;;;;5047325;28;20680;-81
2023/09/24 07:45:14;;;;;;;3.40;2.03;;;;;;;;;;5052478;28;20227;-79
2023/09/24 07:47:41;;;;;;;4.53;2.00;;;;;;;;;;5057854;28;20565;-81
2023/09/24 07:50:09;;;;;;;4.93;2.60;;;;;;;;;;5053696;28;20260;-82
2023/09/24 07:52:37;;;;;;;2.30;1.93;;;;;;;;;;5043988;28;20646;-81
2023/09/24 07:55:06;;;;;;;6.53;2.13;;;;;;;;;;5052138;28;20230;-81
2023/09/24 07:57:33;;;;;;;5.80;1.97;;;;;;;;;;5052847;28;20262;-78
2023/09/24 08:00:01;;;;;;;4.77;1.90;;;;;;;;;;5051191;28;20206;-83
2023/09/24 08:02:28;;;;;;;5.73;1.90;;;;;;;;;;5056330;28;20210;-82
2023/09/24 08:04:57;;;;;;;2.33;1.73;;;;;;;;;;5054813;28;20627;-81
2023/09/24 08:07:29;;;;;;;4.30;2.60;;;;;;;;;;5055114;28;20201;-83
2023/09/24 08:09:56;;;;;;;3.73;2.30;;;;;;;;;;5056169;28;20260;-81
2023/09/24 08:12:23;;;;;;;3.83;1.77;;;;;;;;;;5057013;28;20203;-82
2023/09/24 08:14:50;;;;;;;3.43;1.90;;;;;;;;;;5054163;28;20227;-81
2023/09/24 08:17:18;;;;;;;4.00;2.47;;;;;;;;;;5051537;28;20629;-80
2023/09/24 08:19:45;;;;;;;4.07;1.83;;;;;;;;;;5053676;28;20280;-81
2023/09/24 08:22:13;;;;;;;1.93;1.47;;;;;;;;;;5047104;28;20271;-80
2023/09/24 08:24:40;;;;;;;3.00;1.67;;;;;;;;;;5050052;28;20231;-80
2023/09/24 08:27:07;;;;;;;6.37;1.83;;;;;;;;;;5047283;28;20221;-81
2023/09/24 08:29:35;;;;;;;3.63;1.80;;;;;;;;;;5055119;28;20222;-80
2023/09/24 08:32:02;;;;;;;3.03;1.80;;;;;;;;;;5055759;28;20213;-82
2023/09/24 08:34:29;;;;;;;3.13;1.70;;;;;;;;;;5057187;28;20229;-81
2023/09/24 08:36:56;;;;;;;4.33;1.80;;;;;;;;;;5055620;28;20202;-82
2023/09/24 08:39:23;;;;;;;2.20;1.83;;;;;;;;;;5055806;28;20203;-81
2023/09/24 08:41:53;;;;;;;6.03;2.00;;;;;;;;;;5057969;28;20305;-79
2023/09/24 08:44:22;;;;;;;2.37;1.80;;;;;;;;;;5053416;28;20233;-80
2023/09/24 08:46:50;;;;;;;4.17;1.73;;;;;;;;;;5044669;28;20237;-82
2023/09/24 08:49:18;;;;;;;1.77;1.47;;;;;;;;;;5052895;28;20245;-79
2023/09/24 08:51:46;;;;;;;3.00;1.87;;;;;;;;;;5051211;28;20202;-82
2023/09/24 08:54:14;;;;;;;4.05;1.35;;;;;;;;;;5054293;28;20286;-81
2023/09/24 08:56:41;;;;;;;1.87;1.77;;;;;;;;;;5051548;28;20229;-80
2023/09/24 08:59:09;;;;;;;2.50;1.43;;;;;;;;;;5052409;28;20209;-79
2023/09/24 09:01:36;;;;;;;1.30;1.20;;;;;;;;;;5056073;28;20256;-81
2023/09/24 09:04:03;;;;;;;2.40;1.40;;;;;;;;;;5055196;28;20674;-79
2023/09/24 09:06:34;;;;;;;3.37;1.50;;;;;;;;;;5055276;28;20202;-82
2023/09/24 09:09:02;;;;;;;1.60;1.48;;;;;;;;;;5049393;28;20226;-79
2023/09/24 09:11:43;;;;;;;2.97;1.43;;;;;;;;;;5045671;28;20194;-80
2023/09/24 09:14:11;;;;;;;3.85;1.77;;;;;;;;;;5050575;28;20285;-79
2023/09/24 09:16:55;;;;;;;2.07;1.57;;;;;;;;;;5051145;28;20256;-81
2023/09/24 09:19:23;;;;;;;3.38;2.00;;;;;;;;;;5056309;28;20264;-79
2023/09/24 09:21:50;;;;;;;2.03;1.35;;;;;;;;;;5051530;28;20210;-81
2023/09/24 09:24:24;;;;;;;3.95;1.50;;;;;;;;;;5054861;28;20225;-81
2023/09/24 09:26:55;;;;;;;2.53;1.90;;;;;;;;;;5051371;28;20213;-82
2023/09/24 09:29:28;;;;;;;2.33;1.38;;;;;;;;;;5055783;28;20314;-81
2023/09/24 09:31:55;;;;;;;1.80;1.70;;;;;;;;;;5055620;28;20213;-82
2023/09/24 09:34:26;;;;;;;2.78;1.55;;;;;;;;;;5055639;28;20226;-82
2023/09/24 09:36:53;;;;;;;2.22;1.50;;;;;;;;;;5048876;28;20252;-83
2023/09/24 09:39:20;;;;;;;3.75;1.60;;;;;;;;;;5054898;28;20198;-81
2023/09/24 09:41:48;;;;;;;1.67;1.30;;;;;;;;;;5054939;28;20676;-80
2023/09/24 09:44:16;;;;;;;2.13;1.40;;;;;;;;;;5049683;28;20309;-82
2023/09/24 09:46:47;;;;;;;3.53;1.13;;;;;;;;;;5056040;28;20244;-82
2023/09/24 09:49:17;;;;;;;4.22;1.50;;;;;;;;;;5047955;28;20322;-82
2023/09/24 09:51:46;;;;;;;3.70;1.63;;;;;;;;;;5047357;28;20288;-80
2023/09/24 09:54:14;;;;;;;1.83;1.40;;;;;;;;;;5048084;28;20260;-80
2023/09/24 09:56:42;;;;;;;2.33;1.40;;;;;;;;;;5049815;28;20202;-83
2023/09/24 09:59:09;;;;;;;3.95;1.90;;;;;;;;;;5054925;28;20213;-82
2023/09/24 10:01:37;;;;;;;1.40;1.30;;;;;;;;;;5051157;28;20615;-83
2023/09/24 10:04:05;;;;;;;4.95;1.50;;;;;;;;;;5036419;28;20227;-81
2023/09/24 10:06:37;;;;;;;1.77;1.40;;;;;;;;;;5047338;28;20289;-81
2023/09/24 10:09:34;;;;;;;4.18;1.75;;;;;;;;;;5052633;28;20226;-82
2023/09/24 10:12:07;;;;;;;1.98;1.58;;;;;;;;;;5052528;28;20593;-81
2023/09/24 10:14:38;;;;;;;3.17;1.80;;;;;;;;;;5053255;28;20221;-82
2023/09/24 10:17:18;;;;;;;1.85;1.50;;;;;;;;;;5045507;28;20198;-81
2023/09/24 10:19:49;;;;;;;2.45;1.83;;;;;;;;;;5052354;28;20206;-81
2023/09/24 10:22:37;;;;;;;2.30;1.30;;;;;;;;;;5049660;28;20240;-81
2023/09/24 10:25:30;;;;;;;2.22;1.30;;;;;;;;;;5049670;28;20253;-81
2023/09/24 10:28:02;;;;;;;1.73;1.40;;;;;;;;;;5047710;28;20206;-82
2023/09/24 10:30:55;;;;;;;2.08;1.38;;;;;;;;;;5041708;28;20202;-80
2023/09/24 10:33:52;;;;;;;3.30;1.70;;;;;;;;;;5054009;28;20194;-81
2023/09/24 10:36:26;;;;;;;4.13;1.40;;;;;;;;;;5047848;28;20252;-81
2023/09/24 10:39:07;;;;;;;1.48;1.30;;;;;;;;;;5055165;28;20201;-81
2023/09/24 10:41:35;;;;;;;2.65;1.30;;;;;;;;;;5055056;28;20285;-81
2023/09/24 10:44:21;;;;;;;2.03;1.20;;;;;;;;;;5053003;28;20313;-82
2023/09/24 10:46:48;;;;;;;2.17;1.20;;;;;;;;;;5044064;28;20210;-81
2023/09/24 10:49:24;;;;;;;2.35;1.40;;;;;;;;;;5053830;28;20649;-82
2023/09/24 10:51:58;;;;;;;1.80;1.27;;;;;;;;;;5050792;28;20232;-82
2023/09/24 10:54:26;;;;;;;2.53;1.48;;;;;;;;;;5052403;28;20240;-81
2023/09/24 10:56:53;;;;;;;1.67;1.40;;;;;;;;;;5042991;28;20206;-81
2023/09/24 10:59:34;;;;;;;1.73;1.40;;;;;;;;;;5050126;28;20213;-82
2023/09/24 11:02:17;;;;;;;1.60;1.42;;;;;;;;;;5041024;28;20210;-80
2023/09/24 11:04:48;;;;;;;2.53;1.48;;;;;;;;;;5013321;28;20309;-80
2023/09/24 11:07:16;;;;;;;3.25;1.63;;;;;;;;;;5039673;28;20224;-80
2023/09/24 11:09:49;;;;;;;3.88;1.70;;;;;;;;;;5027829;28;20340;-79
2023/09/24 11:12:17;;;;;;;4.03;1.58;;;;;;;;;;5035150;28;20237;-82
2023/09/24 11:14:57;;;;;;;2.53;1.27;;;;;;;;;;5034136;28;20222;-81
2023/09/24 11:17:44;;;;;;;1.50;1.38;;;;;;;;;;5038527;28;20206;-82
2023/09/24 11:20:12;;;;;;;2.00;1.33;;;;;;;;;;5034887;28;20270;-82
2023/09/24 11:22:40;;;;;;;2.67;1.60;;;;;;;;;;5030625;28;20630;-81
2023/09/24 11:25:11;;;;;;;2.88;1.48;;;;;;;;;;5037401;28;20222;-80
2023/09/24 11:27:49;;;;;;;2.55;1.58;;;;;;;;;;5031842;28;20230;-82
2023/09/24 11:30:17;;;;;;;2.28;1.50;;;;;;;;;;5042017;28;20222;-81
2023/09/24 11:32:45;;;;;;;2.25;1.70;;;;;;;;;;5027297;28;20207;-79
2023/09/24 11:35:13;;;;;;;2.28;1.77;;;;;;;;;;5029479;28;20729;-80
2023/09/24 11:37:47;;;;;;;1.70;1.38;;;;;;;;;;5044028;28;20214;-82
2023/09/24 11:40:24;;;;;;;2.55;1.58;;;;;;;;;;5030113;28;20246;-81
2023/09/24 11:42:51;;;;;;;2.60;1.65;;;;;;;;;;5027929;28;20629;-83
2023/09/24 11:45:39;;;;;;;2.70;1.70;;;;;;;;;;5038955;28;20292;-82
2023/09/24 11:48:10;;;;;;;3.00;2.15;;;;;;;;;;5037003;28;20207;-80
2023/09/24 11:50:39;;;;;;;2.72;1.63;;;;;;;;;;5033121;28;20223;-83
2023/09/24 11:53:06;;;;;;;3.63;1.80;;;;;;;;;;5040842;28;20195;-82
2023/09/24 11:55:35;;;;;;;4.15;1.73;;;;;;;;;;5044343;28;20242;-80
2023/09/24 11:58:03;;;;;;;2.00;1.42;;;;;;;;;;5035259;28;20263;-81
2023/09/24 12:00:30;;;;;;;3.55;1.33;;;;;;;;;;5042099;28;20206;-83
2023/09/24 12:02:59;;;;;;;2.53;1.92;;;;;;;;;;5052258;28;20233;-83
2023/09/24 12:05:32;;;;;;;2.70;1.50;;;;;;;;;;5040663;28;20226;-82
2023/09/24 12:08:04;;;;;;;1.58;1.30;;;;;;;;;;5038544;28;20243;-82
2023/09/24 12:10:38;;;;;;;2.40;1.73;;;;;;;;;;5025151;28;20222;-82
2023/09/24 12:13:05;;;;;;;3.17;1.60;;;;;;;;;;5041977;28;20207;-81
2023/09/24 12:15:33;;;;;;;1.95;1.45;;;;;;;;;;5029794;28;20226;-80
2023/09/24 12:18:03;;;;;;;1.85;1.40;;;;;;;;;;5034648;28;20219;-82
2023/09/24 12:20:38;;;;;;;2.22;1.40;;;;;;;;;;5039650;28;20677;-82
2023/09/24 12:23:07;;;;;;;3.10;1.55;;;;;;;;;;5034727;28;20287;-79
2023/09/24 12:25:35;;;;;;;1.58;1.30;;;;;;;;;;5040898;28;20219;-82
2023/09/24 12:28:06;;;;;;;1.48;1.38;;;;;;;;;;5035016;28;20269;-83
2023/09/24 12:30:34;;;;;;;2.08;1.42;;;;;;;;;;5036827;28;20227;-81
2023/09/24 12:33:02;;;;;;;1.85;1.15;;;;;;;;;;5040779;28;20206;-79
2023/09/24 12:35:29;;;;;;;3.33;1.55;;;;;;;;;;5044625;28;20295;-82
2023/09/24 12:37:56;;;;;;;1.25;1.15;;;;;;;;;;5047884;28;20207;-80
2023/09/24 12:40:25;;;;;;;1.40;1.30;;;;;;;;;;5047277;28;20210;-82
2023/09/24 12:42:52;;;;;;;2.67;1.50;;;;;;;;;;5041309;28;20215;-84
2023/09/24 12:45:20;;;;;;;1.30;1.20;;;;;;;;;;5032463;28;20238;-79
2023/09/24 12:47:47;;;;;;;1.75;1.33;;;;;;;;;;5026581;28;20368;-83
2023/09/24 12:50:14;;;;;;;1.40;1.30;;;;;;;;;;5034182;28;20238;-83
2023/09/24 12:52:44;;;;;;;1.90;1.45;;;;;;;;;;5033434;28;20268;-80
2023/09/24 12:55:12;;;;;;;1.60;1.40;;;;;;;;;;5030798;28;20244;-82
2023/09/24 12:57:40;;;;;;;2.22;1.10;;;;;;;;;;5033559;28;20196;-83
2023/09/24 13:00:11;;;;;;;2.67;1.20;;;;;;;;;;5034156;28;20215;-83
2023/09/24 13:02:41;;;;;;;1.75;1.10;;;;;;;;;;5030572;28;20209;-81
2023/09/24 13:05:09;;;;;;;1.30;1.20;;;;;;;;;;5042064;28;20234;-82
2023/09/24 13:07:38;;;;;;;1.50;1.40;;;;;;;;;;5033004;28;20253;-83
2023/09/24 13:10:06;;;;;;;1.30;1.20;;;;;;;;;;5043212;28;20218;-82
2023/09/24 13:12:33;;;;;;;2.08;1.20;;;;;;;;;;5024208;28;20246;-84
2023/09/24 13:15:01;;;;;;;3.05;1.50;;;;;;;;;;5038699;28;20315;-82
2023/09/24 13:17:29;;;;;;;1.45;1.35;;;;;;;;;;5039443;28;20207;-81
2023/09/24 13:19:56;;;;;;;2.05;1.65;;;;;;;;;;5045617;28;20207;-80
2023/09/24 13:22:23;;;;;;;1.35;1.23;;;;;;;;;;5054795;28;20210;-82
2023/09/24 13:24:52;;;;;;;1.50;1.40;;;;;;;;;;5040068;28;20228;-83
2023/09/24 13:27:20;;;;;;;3.05;1.20;;;;;;;;;;5039251;28;20214;-83
2023/09/24 13:29:48;;;;;;;1.75;1.05;;;;;;;;;;5037181;28;20732;-82
2023/09/24 13:32:18;;;;;;;1.80;1.30;;;;;;;;;;5039063;28;20203;-82
2023/09/24 13:34:46;;;;;;;1.90;1.38;;;;;;;;;;5038785;28;20231;-83
2023/09/24 13:37:13;;;;;;;2.10;1.70;;;;;;;;;;5034911;28;20211;-82
2023/09/24 13:39:41;;;;;;;1.77;1.40;;;;;;;;;;5036120;28;20215;-82
2023/09/24 13:42:08;;;;;;;1.58;1.30;;;;;;;;;;5047915;28;20735;-83
2023/09/24 13:44:36;;;;;;;1.30;1.20;;;;;;;;;;5046521;28;20254;-82
2023/09/24 13:47:03;;;;;;;1.67;1.20;;;;;;;;;;5029814;28;20234;-82
2023/09/24 13:49:34;;;;;;;1.40;1.30;;;;;;;;;;5037761;28;20231;-81
2023/09/24 13:52:03;;;;;;;1.77;1.30;;;;;;;;;;5039841;28;20293;-83
2023/09/24 13:54:31;;;;;;;2.15;1.45;;;;;;;;;;5033035;28;20618;-83
2023/09/24 13:56:59;;;;;;;2.80;1.20;;;;;;;;;;5038612;28;20210;-81
2023/09/24 13:59:26;;;;;;;2.65;1.33;;;;;;;;;;5041103;28;20213;-81
2023/09/24 14:01:53;;;;;;;1.77;1.30;;;;;;;;;;5043679;28;20206;-83
2023/09/24 14:04:21;;;;;;;2.22;1.08;;;;;;;;;;5032548;28;20233;-80
2023/09/24 14:06:48;;;;;;;1.85;1.30;;;;;;;;;;5029762;28;20302;-83
2023/09/24 14:12:17;;;;;;;2.40;1.25;;;;;;;;;;5030629;28;20213;-79
2023/09/24 14:14:45;;;;;;;2.67;1.42;;;;;;;;;;5029072;28;20602;-80
2023/09/24 14:17:12;;;;;;;1.20;1.10;;;;;;;;;;5031585;28;20207;-82
2023/09/24 14:19:39;;;;;;;2.17;1.30;;;;;;;;;;5033654;28;20211;-82
2023/09/24 14:22:07;;;;;;;2.75;1.20;;;;;;;;;;5030983;28;20219;-82
2023/09/24 14:24:34;;;;;;;2.30;1.40;;;;;;;;;;5025881;28;20223;-83
2023/09/24 14:27:02;;;;;;;1.50;1.20;;;;;;;;;;5036492;28;20587;-82
2023/09/24 14:29:30;;;;;;;1.60;1.35;;;;;;;;;;5046117;28;20708;-82
2023/09/24 14:31:57;;;;;;;1.85;1.17;;;;;;;;;;5040193;28;20289;-83
2023/09/24 14:34:25;;;;;;;1.40;1.30;;;;;;;;;;5032069;28;20256;-82
2023/09/24 14:36:52;;;;;;;1.50;1.23;;;;;;;;;;5039380;28;20206;-80
2023/09/24 14:39:19;;;;;;;2.03;1.35;;;;;;;;;;5032327;28;20199;-82
2023/09/24 14:41:46;;;;;;;1.42;1.25;;;;;;;;;;5038169;28;20203;-82
2023/09/24 14:44:15;;;;;;;1.30;1.20;;;;;;;;;;5044252;28;20226;-80
2023/09/24 14:46:43;;;;;;;2.53;1.08;;;;;;;;;;5036525;28;20417;-80
2023/09/24 14:49:11;;;;;;;1.35;1.20;;;;;;;;;;5033321;28;20202;-82
2023/09/24 14:51:39;;;;;;;1.20;1.10;;;;;;;;;;5030906;28;20309;-82
2023/09/24 14:54:08;;;;;;;1.08;1.02;;;;;;;;;;5030478;28;20226;-83
2023/09/24 14:56:36;;;;;;;1.85;1.30;;;;;;;;;;5032994;28;20693;-83